Time;durP1;ratioP1;P1;durP2;ratioP2;P2;SDS_P1;SDS_P2;PMS_P1;PMS_P2;Temp;Humidity;BMP_temperature;BMP_pressure;BME280_temperature;BME280_humidity;BME280_pressure;Samples;Min_cycle;Max_cycle;Signal;HPM_P1;HPM_P2
2021/07/29 00:01:40;;;;;;;3.35;1.45;;;17.40;86.70;;;;;;6215922;23;20024;-78
2021/07/29 00:04:08;;;;;;;3.65;1.77;;;17.40;87.10;;;;;;6220443;23;20023;-78
2021/07/29 00:06:36;;;;;;;2.78;1.33;;;17.40;87.30;;;;;;6218793;23;20028;-78
2021/07/29 00:09:03;;;;;;;4.85;1.63;;;17.20;87.40;;;;;;6221359;23;20375;-78
2021/07/29 00:11:37;;;;;;;5.03;1.60;;;17.20;87.50;;;;;;6222145;23;20028;-78
2021/07/29 00:14:04;;;;;;;3.72;1.38;;;17.10;87.60;;;;;;6221847;23;20032;-78
2021/07/29 00:16:42;;;;;;;3.92;1.50;;;17.10;87.80;;;;;;6218483;23;20024;-78
2021/07/29 00:19:10;;;;;;;3.13;1.52;;;17.10;87.60;;;;;;6219517;23;20260;-78
2021/07/29 00:21:46;;;;;;;3.75;1.27;;;17.10;87.80;;;;;;6221832;23;20261;-78
2021/07/29 00:24:13;;;;;;;3.70;1.48;;;17.00;87.80;;;;;;6223570;23;20064;-78
2021/07/29 00:26:41;;;;;;;4.78;1.52;;;17.00;88.00;;;;;;6224184;23;20024;-78
2021/07/29 00:29:09;;;;;;;3.58;1.60;;;17.00;87.90;;;;;;6222443;23;20017;-77
2021/07/29 00:31:36;;;;;;;2.92;1.42;;;16.90;88.10;;;;;;6222699;23;20032;-78
2021/07/29 00:34:05;;;;;;;3.92;1.70;;;16.80;88.30;;;;;;6219196;23;20216;-78
2021/07/29 00:36:33;;;;;;;3.38;1.50;;;16.80;88.40;;;;;;6218953;23;20072;-78
2021/07/29 00:39:00;;;;;;;4.28;1.40;;;16.70;88.70;;;;;;6223265;23;20036;-78
2021/07/29 00:41:32;;;;;;;3.97;1.70;;;16.70;88.90;;;;;;6219878;23;20083;-78
2021/07/29 00:44:13;;;;;;;5.55;1.63;;;16.60;89.00;;;;;;6223612;23;20182;-78
2021/07/29 00:46:40;;;;;;;3.42;1.50;;;16.60;89.10;;;;;;6221547;23;20029;-78
2021/07/29 00:49:08;;;;;;;6.20;1.58;;;16.50;89.20;;;;;;6222878;23;20009;-78
2021/07/29 00:51:37;;;;;;;4.00;1.73;;;16.50;89.00;;;;;;6220702;23;20025;-78
2021/07/29 00:54:05;;;;;;;4.20;1.40;;;16.40;89.10;;;;;;6225621;23;20025;-78
2021/07/29 00:56:36;;;;;;;5.45;1.83;;;16.40;89.20;;;;;;6221576;23;20025;-78
2021/07/29 00:59:06;;;;;;;3.83;1.55;;;16.20;89.20;;;;;;6223838;23;20020;-78
2021/07/29 01:01:33;;;;;;;5.75;1.70;;;16.20;89.50;;;;;;6211188;23;20288;-78
2021/07/29 01:04:00;;;;;;;3.45;1.90;;;16.20;89.60;;;;;;6215111;23;20059;-78
2021/07/29 01:06:30;;;;;;;3.53;1.55;;;16.20;89.60;;;;;;6219415;23;20389;-78
2021/07/29 01:09:08;;;;;;;5.57;1.55;;;16.10;89.70;;;;;;6219376;23;20052;-78
2021/07/29 01:11:35;;;;;;;4.18;1.70;;;16.10;89.70;;;;;;6221030;23;20084;-77
2021/07/29 01:14:03;;;;;;;4.78;1.73;;;16.10;89.50;;;;;;6221780;23;20013;-78
2021/07/29 01:16:31;;;;;;;3.30;1.70;;;16.10;89.50;;;;;;6220110;23;20059;-78
2021/07/29 01:18:59;;;;;;;3.55;1.60;;;16.10;89.20;;;;;;6219542;23;20043;-78
2021/07/29 01:21:29;;;;;;;3.70;1.80;;;16.00;89.30;;;;;;6220809;23;20024;-79
2021/07/29 01:23:56;;;;;;;3.67;1.40;;;15.90;89.50;;;;;;6218176;23;20020;-78
2021/07/29 01:26:24;;;;;;;4.55;2.20;;;15.90;89.70;;;;;;6218632;23;20071;-78
2021/07/29 01:28:51;;;;;;;5.95;1.73;;;15.90;89.80;;;;;;6221283;23;20016;-78
2021/07/29 01:31:19;;;;;;;3.75;1.50;;;15.80;89.90;;;;;;6219748;23;20360;-78
2021/07/29 01:33:46;;;;;;;3.92;1.75;;;15.80;89.80;;;;;;6219629;23;20044;-78
2021/07/29 01:36:14;;;;;;;3.40;1.42;;;15.80;89.80;;;;;;6220508;23;20081;-78
2021/07/29 01:38:42;;;;;;;5.07;2.10;;;15.70;89.70;;;;;;6220509;23;20297;-78
2021/07/29 01:41:10;;;;;;;6.35;1.73;;;15.70;89.80;;;;;;6224330;23;20031;-78
2021/07/29 01:43:37;;;;;;;6.10;2.13;;;15.70;90.00;;;;;;6221083;23;20064;-78
2021/07/29 01:46:04;;;;;;;3.88;1.50;;;15.70;89.80;;;;;;6223292;23;20081;-78
2021/07/29 01:48:34;;;;;;;4.00;1.70;;;15.60;90.00;;;;;;6226079;23;20025;-78
2021/07/29 01:51:01;;;;;;;3.10;1.52;;;15.60;89.90;;;;;;6223977;23;20332;-78
2021/07/29 01:53:29;;;;;;;3.78;1.75;;;15.60;89.70;;;;;;6221554;23;20013;-78
2021/07/29 01:55:57;;;;;;;4.00;1.63;;;15.70;89.60;;;;;;6221216;23;20178;-78
2021/07/29 01:58:25;;;;;;;4.43;1.50;;;15.70;89.60;;;;;;6223758;23;20020;-78
2021/07/29 02:00:53;;;;;;;5.13;1.75;;;15.70;89.60;;;;;;6218696;23;20017;-78
2021/07/29 02:03:20;;;;;;;4.68;1.67;;;15.70;89.50;;;;;;6218375;23;20021;-79
2021/07/29 02:05:47;;;;;;;4.80;1.65;;;15.60;89.60;;;;;;6223187;23;20028;-78
2021/07/29 02:08:14;;;;;;;4.43;1.55;;;15.60;89.70;;;;;;6222655;23;20028;-78
2021/07/29 02:10:42;;;;;;;3.47;1.60;;;15.60;89.80;;;;;;6223949;23;20021;-78
2021/07/29 02:13:10;;;;;;;5.25;1.95;;;15.60;89.80;;;;;;6223658;23;20027;-78
2021/07/29 02:15:37;;;;;;;3.53;1.88;;;15.50;89.90;;;;;;6224077;23;20208;-78
2021/07/29 02:18:05;;;;;;;5.60;1.70;;;15.50;89.90;;;;;;6222883;23;20035;-78
2021/07/29 02:20:33;;;;;;;3.95;1.60;;;15.40;90.00;;;;;;6221373;23;20024;-77
2021/07/29 02:23:00;;;;;;;5.25;1.90;;;15.40;90.20;;;;;;6220136;23;20368;-78
2021/07/29 02:25:29;;;;;;;7.50;2.67;;;15.30;90.10;;;;;;6221272;23;20020;-79
2021/07/29 02:27:56;;;;;;;3.17;1.63;;;15.30;90.20;;;;;;6217192;23;20087;-79
2021/07/29 02:30:25;;;;;;;3.70;1.85;;;15.30;90.30;;;;;;6220312;23;20032;-79
2021/07/29 02:32:52;;;;;;;7.95;1.92;;;15.30;90.40;;;;;;6220226;23;20309;-79
2021/07/29 02:35:20;;;;;;;3.72;1.90;;;15.30;90.30;;;;;;6215890;23;20024;-79
2021/07/29 02:37:47;;;;;;;3.70;1.67;;;15.30;90.30;;;;;;6213435;23;20020;-79
2021/07/29 02:40:14;;;;;;;4.40;1.73;;;15.20;90.30;;;;;;6218316;23;20224;-79
2021/07/29 02:42:41;;;;;;;4.72;2.15;;;15.30;90.20;;;;;;6218129;23;20052;-79
2021/07/29 02:45:09;;;;;;;6.55;2.00;;;15.20;90.10;;;;;;6220617;23;20031;-79
2021/07/29 02:47:40;;;;;;;3.45;1.65;;;15.30;90.10;;;;;;6219088;23;20271;-79
2021/07/29 02:50:08;;;;;;;3.15;1.52;;;15.30;90.20;;;;;;6218742;23;20021;-80
2021/07/29 02:52:35;;;;;;;5.93;1.67;;;15.30;90.00;;;;;;6219275;23;20029;-79
2021/07/29 02:55:03;;;;;;;4.80;2.05;;;15.40;89.70;;;;;;6217492;23;20189;-78
2021/07/29 02:57:36;;;;;;;6.53;1.70;;;15.60;89.50;;;;;;6219158;23;20051;-79
2021/07/29 03:00:05;;;;;;;3.78;1.42;;;15.60;89.00;;;;;;6215080;23;20028;-79
2021/07/29 03:02:33;;;;;;;4.40;1.73;;;15.60;88.90;;;;;;6216859;23;20028;-80
2021/07/29 03:05:02;;;;;;;3.33;1.50;;;15.70;88.60;;;;;;6220433;23;20077;-79
2021/07/29 03:07:33;;;;;;;7.38;1.70;;;15.80;88.60;;;;;;6218038;23;20016;-80
2021/07/29 03:10:00;;;;;;;4.88;1.90;;;15.90;88.50;;;;;;6217395;23;20032;-80
2021/07/29 03:12:32;;;;;;;3.38;1.88;;;16.00;87.90;;;;;;6222084;23;20025;-78
2021/07/29 03:14:59;;;;;;;5.60;1.67;;;16.10;87.10;;;;;;6220768;23;20316;-78
2021/07/29 03:17:26;;;;;;;4.57;1.75;;;16.10;87.30;;;;;;6218991;23;20240;-79
2021/07/29 03:19:53;;;;;;;4.93;1.98;;;16.10;87.40;;;;;;6221000;23;20090;-79
2021/07/29 03:22:22;;;;;;;3.03;1.38;;;16.10;87.00;;;;;;6221588;23;20036;-78
2021/07/29 03:24:49;;;;;;;5.05;2.05;;;16.10;86.90;;;;;;6220309;23;20281;-78
2021/07/29 03:27:17;;;;;;;3.83;1.63;;;16.10;87.20;;;;;;6221807;23;20071;-80
2021/07/29 03:29:44;;;;;;;4.22;1.70;;;16.10;87.30;;;;;;6221745;23;20033;-79
2021/07/29 03:32:11;;;;;;;4.28;1.58;;;16.10;87.20;;;;;;6224679;23;20017;-79
2021/07/29 03:34:39;;;;;;;3.08;1.50;;;15.90;87.20;;;;;;6223575;23;20078;-79
2021/07/29 03:37:06;;;;;;;5.00;1.65;;;15.90;87.10;;;;;;6223900;23;20024;-79
2021/07/29 03:39:35;;;;;;;4.65;1.63;;;15.80;87.10;;;;;;6224195;23;20051;-80
2021/07/29 03:42:03;;;;;;;4.68;1.60;;;15.70;87.40;;;;;;6224667;23;20025;-80
2021/07/29 03:44:30;;;;;;;5.10;2.13;;;15.80;87.50;;;;;;6197217;23;20051;-80
2021/07/29 03:46:57;;;;;;;4.22;1.70;;;15.80;87.30;;;;;;6222655;23;20036;-79
2021/07/29 03:49:24;;;;;;;5.70;1.60;;;15.90;87.20;;;;;;6221238;23;20024;-80
2021/07/29 03:51:52;;;;;;;4.72;1.83;;;15.80;87.70;;;;;;6222886;23;20263;-80
2021/07/29 03:54:19;;;;;;;4.00;1.77;;;15.80;87.60;;;;;;6223392;23;20028;-80
2021/07/29 03:56:48;;;;;;;3.75;1.40;;;15.80;87.80;;;;;;6218123;23;20429;-80
2021/07/29 03:59:15;;;;;;;3.55;1.90;;;15.80;87.80;;;;;;6218228;23;20024;-79
2021/07/29 04:01:42;;;;;;;5.43;1.70;;;15.70;87.90;;;;;;6215918;23;20028;-79
2021/07/29 04:04:09;;;;;;;3.22;1.60;;;15.60;87.90;;;;;;6221273;23;20072;-79
2021/07/29 04:06:37;;;;;;;5.13;2.08;;;15.60;88.00;;;;;;6221841;23;20031;-79
2021/07/29 04:09:04;;;;;;;6.20;2.03;;;15.60;88.30;;;;;;6221938;23;20037;-79
2021/07/29 04:11:31;;;;;;;4.60;1.70;;;15.60;88.30;;;;;;6220923;23;20387;-79
2021/07/29 04:14:00;;;;;;;3.42;1.60;;;15.60;88.50;;;;;;6220773;23;20258;-79
2021/07/29 04:16:33;;;;;;;4.97;1.90;;;15.60;88.40;;;;;;6219988;23;20024;-79
2021/07/29 04:19:00;;;;;;;4.35;1.83;;;15.60;88.40;;;;;;6218939;23;20020;-79
2021/07/29 04:21:31;;;;;;;4.15;1.88;;;15.60;88.50;;;;;;6219806;23;20021;-79
2021/07/29 04:23:58;;;;;;;8.70;2.25;;;15.60;88.70;;;;;;6222076;23;20024;-79
2021/07/29 04:26:26;;;;;;;3.17;1.65;;;15.60;88.80;;;;;;6217410;23;20039;-80
2021/07/29 04:28:56;;;;;;;5.28;1.77;;;15.50;88.80;;;;;;6219773;23;20301;-79
2021/07/29 04:31:26;;;;;;;6.90;2.38;;;15.60;89.10;;;;;;6219694;23;20094;-79
2021/07/29 04:33:54;;;;;;;3.80;1.80;;;15.50;89.00;;;;;;6220072;23;20083;-79
2021/07/29 04:36:25;;;;;;;4.53;1.83;;;15.50;89.10;;;;;;6221785;23;20017;-79
2021/07/29 04:38:52;;;;;;;6.38;2.15;;;15.60;89.00;;;;;;6220172;23;20221;-79
2021/07/29 04:41:19;;;;;;;4.50;1.73;;;15.60;88.90;;;;;;6242456;23;20260;-79
2021/07/29 04:43:46;;;;;;;6.45;2.20;;;15.60;88.50;;;;;;6221079;23;20025;-79
2021/07/29 04:46:14;;;;;;;4.53;1.83;;;15.70;88.30;;;;;;6219560;23;20063;-79
2021/07/29 04:48:42;;;;;;;4.05;1.98;;;15.70;88.20;;;;;;6218322;23;20076;-79
2021/07/29 04:51:09;;;;;;;4.90;1.70;;;15.80;87.90;;;;;;6217824;23;20028;-80
2021/07/29 04:53:37;;;;;;;9.85;2.53;;;16.00;86.90;;;;;;6217317;23;20016;-79
2021/07/29 04:56:04;;;;;;;4.80;2.10;;;16.10;86.30;;;;;;6217784;23;20024;-79
2021/07/29 04:58:31;;;;;;;4.00;1.88;;;16.10;86.10;;;;;;6218547;23;20044;-79
2021/07/29 05:01:03;;;;;;;7.75;2.38;;;16.20;86.20;;;;;;6214724;23;20067;-79
2021/07/29 05:03:31;;;;;;;4.95;2.22;;;16.40;85.30;;;;;;6214468;23;20040;-79
2021/07/29 05:06:01;;;;;;;7.32;2.67;;;16.50;85.50;;;;;;6219192;23;20025;-79
2021/07/29 05:08:31;;;;;;;4.65;2.53;;;16.60;85.00;;;;;;6221164;23;20037;-79
2021/07/29 05:10:58;;;;;;;3.88;1.80;;;16.70;83.80;;;;;;6222429;23;20047;-79
2021/07/29 05:13:26;;;;;;;5.47;2.35;;;16.90;83.20;;;;;;6218166;23;20032;-79
2021/07/29 05:15:53;;;;;;;3.13;1.42;;;17.00;83.60;;;;;;6217351;23;20025;-79
2021/07/29 05:18:20;;;;;;;7.03;2.03;;;17.10;82.50;;;;;;6219755;23;20056;-79
2021/07/29 05:20:47;;;;;;;6.30;1.92;;;17.20;82.00;;;;;;6219414;23;20032;-80
2021/07/29 05:23:16;;;;;;;5.22;1.45;;;17.30;81.20;;;;;;6221762;23;20039;-79
2021/07/29 05:25:44;;;;;;;5.90;2.23;;;17.40;81.00;;;;;;6222862;23;20071;-79
2021/07/29 05:28:11;;;;;;;6.03;2.05;;;17.50;80.70;;;;;;6218420;23;20036;-80
2021/07/29 05:30:38;;;;;;;5.25;1.90;;;17.60;80.50;;;;;;6223807;23;20071;-80
2021/07/29 05:33:05;;;;;;;5.03;1.88;;;17.60;80.00;;;;;;6218829;23;20036;-79
2021/07/29 05:35:33;;;;;;;5.07;1.80;;;17.60;80.00;;;;;;6220043;23;20025;-79
2021/07/29 05:38:01;;;;;;;4.75;1.85;;;17.70;79.80;;;;;;6221928;23;20024;-80
2021/07/29 05:40:30;;;;;;;4.05;1.55;;;18.00;78.90;;;;;;6225347;23;20025;-78
2021/07/29 05:42:59;;;;;;;4.10;1.77;;;18.10;78.60;;;;;;6222102;23;20224;-80
2021/07/29 05:45:28;;;;;;;5.45;2.30;;;18.20;78.10;;;;;;6220902;23;20024;-79
2021/07/29 05:47:55;;;;;;;4.35;1.88;;;18.10;77.80;;;;;;6223035;23;20069;-79
2021/07/29 05:50:22;;;;;;;4.47;1.92;;;18.10;77.40;;;;;;6223863;23;20028;-79
2021/07/29 05:52:50;;;;;;;6.05;1.98;;;18.30;78.00;;;;;;6224291;23;20028;-78
2021/07/29 05:55:17;;;;;;;3.95;2.03;;;18.50;77.30;;;;;;6220626;23;20020;-79
2021/07/29 05:57:46;;;;;;;4.07;1.77;;;18.40;77.00;;;;;;6217867;23;20021;-78
2021/07/29 06:00:14;;;;;;;5.20;1.70;;;18.60;76.50;;;;;;6215386;23;20084;-79
2021/07/29 06:02:41;;;;;;;4.35;2.00;;;18.60;76.00;;;;;;6218557;23;20029;-79
2021/07/29 06:05:09;;;;;;;4.25;1.85;;;18.60;75.60;;;;;;6217869;23;20045;-80
2021/07/29 06:07:37;;;;;;;7.22;2.28;;;18.50;75.60;;;;;;6217173;23;20036;-79
2021/07/29 06:10:04;;;;;;;6.55;1.95;;;18.60;75.60;;;;;;6221586;23;20079;-80
2021/07/29 06:12:32;;;;;;;4.10;1.70;;;18.60;75.40;;;;;;6223001;23;20114;-80
2021/07/29 06:15:02;;;;;;;3.97;1.85;;;18.60;75.20;;;;;;6216771;23;20043;-79
2021/07/29 06:17:37;;;;;;;4.00;1.85;;;18.80;75.40;;;;;;6219118;23;20111;-81
2021/07/29 06:20:07;;;;;;;4.55;1.77;;;18.80;74.80;;;;;;6219699;23;20083;-80
2021/07/29 06:22:34;;;;;;;;;;;18.70;74.20;;;;;;6221417;23;20364;-80
2021/07/29 06:25:04;;;;;;;3.92;2.17;;;18.80;74.50;;;;;;6217085;23;19920;-81
2021/07/29 06:27:36;;;;;;;6.90;2.30;;;18.80;74.50;;;;;;6219703;23;20320;-80
2021/07/29 06:30:12;;;;;;;5.85;1.75;;;19.00;73.90;;;;;;6219905;23;20055;-81
2021/07/29 06:32:40;;;;;;;5.32;1.92;;;19.00;73.50;;;;;;6219125;23;20397;-78
2021/07/29 06:35:08;;;;;;;3.97;2.03;;;19.00;73.30;;;;;;6219300;23;20028;-78
2021/07/29 06:37:37;;;;;;;7.00;1.63;;;18.90;73.20;;;;;;6218369;23;20028;-77
2021/07/29 06:40:05;;;;;;;5.63;2.30;;;18.90;73.70;;;;;;6219651;23;20028;-77
2021/07/29 06:42:32;;;;;;;7.78;2.15;;;18.90;73.80;;;;;;6217356;23;20108;-77
2021/07/29 06:45:00;;;;;;;4.68;1.83;;;19.00;73.50;;;;;;6219924;23;20020;-78
2021/07/29 06:47:32;;;;;;;3.05;1.45;;;19.00;72.80;;;;;;6221489;23;20025;-77
2021/07/29 06:50:00;;;;;;;4.75;2.05;;;19.00;73.50;;;;;;6221881;23;20016;-78
2021/07/29 06:52:27;;;;;;;5.38;2.10;;;19.10;72.80;;;;;;6214985;23;20533;-78
2021/07/29 06:54:55;;;;;;;4.82;1.70;;;19.20;72.80;;;;;;6218184;23;20051;-77
2021/07/29 06:57:22;;;;;;;4.68;1.95;;;19.20;72.90;;;;;;6220474;23;20028;-77
2021/07/29 06:59:49;;;;;;;5.07;1.88;;;19.30;72.00;;;;;;6217675;23;20025;-78
2021/07/29 07:02:16;;;;;;;7.32;2.00;;;19.50;71.60;;;;;;6214338;23;20016;-77
2021/07/29 07:04:45;;;;;;;5.35;1.63;;;19.50;71.40;;;;;;6215610;23;20031;-77
2021/07/29 07:07:16;;;;;;;5.03;2.28;;;19.40;71.10;;;;;;6219566;23;20032;-76
2021/07/29 07:09:44;;;;;;;4.50;2.05;;;19.30;71.30;;;;;;6217584;23;20016;-77
2021/07/29 07:12:12;;;;;;;5.22;1.85;;;19.40;70.60;;;;;;6217942;23;20023;-77
2021/07/29 07:14:39;;;;;;;3.63;1.60;;;19.60;70.70;;;;;;6218187;23;20419;-77
2021/07/29 07:17:07;;;;;;;4.22;1.63;;;19.50;70.30;;;;;;6221259;23;20024;-78
2021/07/29 07:19:35;;;;;;;3.72;1.73;;;19.60;69.90;;;;;;6218396;23;20017;-77
2021/07/29 07:22:06;;;;;;;4.00;1.88;;;19.60;69.80;;;;;;6220714;23;20028;-77
2021/07/29 07:24:34;;;;;;;4.93;1.55;;;19.70;69.50;;;;;;6218908;23;20032;-77
2021/07/29 07:27:05;;;;;;;3.97;1.65;;;19.80;68.70;;;;;;6221920;23;20072;-78
2021/07/29 07:29:33;;;;;;;5.85;1.90;;;19.90;69.50;;;;;;6219977;23;20025;-77
2021/07/29 07:32:01;;;;;;;5.78;1.80;;;19.80;70.10;;;;;;6220161;23;20047;-77
2021/07/29 07:34:29;;;;;;;8.18;2.28;;;19.60;69.80;;;;;;6216454;23;20079;-78
2021/07/29 07:36:56;;;;;;;5.53;1.85;;;19.60;70.50;;;;;;6216300;23;20335;-77
2021/07/29 07:39:26;;;;;;;4.38;1.98;;;19.60;70.30;;;;;;6218463;23;20070;-78
2021/07/29 07:41:55;;;;;;;4.05;1.50;;;19.60;70.00;;;;;;6217037;23;20016;-78
2021/07/29 07:44:23;;;;;;;6.93;2.40;;;19.60;70.60;;;;;;6217648;23;20324;-77
2021/07/29 07:46:50;;;;;;;9.13;2.47;;;19.50;70.60;;;;;;6219886;23;20013;-77
2021/07/29 07:49:17;;;;;;;4.63;2.17;;;19.50;70.30;;;;;;6218559;23;20023;-77
2021/07/29 07:51:44;;;;;;;3.97;1.75;;;19.40;70.40;;;;;;6218682;23;20021;-77
2021/07/29 07:54:12;;;;;;;5.38;2.00;;;19.50;70.30;;;;;;6217445;23;20016;-77
2021/07/29 07:56:44;;;;;;;5.85;2.08;;;19.50;70.80;;;;;;6216956;23;20039;-77
2021/07/29 07:59:11;;;;;;;5.22;1.75;;;19.60;70.90;;;;;;6214537;23;20044;-77
2021/07/29 08:01:40;;;;;;;4.20;2.00;;;19.60;69.80;;;;;;6215710;23;20024;-78
2021/07/29 08:04:07;;;;;;;3.95;1.63;;;19.70;69.40;;;;;;6221562;23;20028;-78
2021/07/29 08:06:36;;;;;;;9.35;2.17;;;19.90;69.40;;;;;;6219777;23;20008;-77
2021/07/29 08:09:04;;;;;;;4.82;2.17;;;19.90;69.00;;;;;;6217737;23;20028;-73
2021/07/29 08:11:31;;;;;;;4.75;1.95;;;20.10;68.40;;;;;;6218380;23;20324;-77
2021/07/29 08:14:00;;;;;;;3.33;1.70;;;20.10;68.20;;;;;;6217726;23;20343;-78
2021/07/29 08:16:27;;;;;;;5.38;2.20;;;20.30;67.50;;;;;;6219771;23;20012;-78
2021/07/29 08:18:56;;;;;;;5.18;1.88;;;20.30;66.30;;;;;;6220452;23;20533;-78
2021/07/29 08:21:23;;;;;;;3.75;1.73;;;20.40;66.40;;;;;;6222249;23;20274;-78
2021/07/29 08:23:51;;;;;;;4.82;2.00;;;20.60;66.10;;;;;;6223295;23;20055;-78
2021/07/29 08:26:19;;;;;;;11.25;1.52;;;20.90;66.20;;;;;;6221302;23;20013;-77
2021/07/29 08:28:47;;;;;;;7.65;2.00;;;21.20;63.70;;;;;;6220429;23;20055;-78
2021/07/29 08:31:15;;;;;;;3.95;1.85;;;21.10;62.90;;;;;;6219745;23;20367;-78
2021/07/29 08:33:43;;;;;;;4.75;1.85;;;21.20;63.00;;;;;;6221631;23;20336;-79
2021/07/29 08:36:14;;;;;;;4.63;1.73;;;21.20;62.60;;;;;;6221732;23;20005;-78
2021/07/29 08:38:42;;;;;;;8.05;2.35;;;21.10;63.30;;;;;;6219389;23;20028;-78
2021/07/29 08:41:09;;;;;;;4.03;1.70;;;20.90;63.20;;;;;;6220135;23;20229;-79
2021/07/29 08:43:37;;;;;;;4.65;1.65;;;20.80;63.80;;;;;;6222046;23;20020;-78
2021/07/29 08:46:07;;;;;;;5.38;1.90;;;20.80;64.00;;;;;;6218786;23;20316;-78
2021/07/29 08:48:44;;;;;;;4.05;1.77;;;21.00;62.80;;;;;;6221166;23;20032;-79
2021/07/29 08:51:11;;;;;;;5.13;1.45;;;21.10;61.70;;;;;;6220244;23;20075;-78
2021/07/29 08:53:38;;;;;;;2.45;1.25;;;21.10;62.10;;;;;;6223182;23;20100;-78
2021/07/29 08:56:06;;;;;;;5.95;1.88;;;20.90;61.50;;;;;;6217484;23;20071;-80
2021/07/29 08:58:33;;;;;;;6.57;1.77;;;20.70;62.50;;;;;;6220136;23;20127;-78
2021/07/29 09:01:02;;;;;;;5.72;1.50;;;21.00;60.60;;;;;;6215653;23;20059;-77
2021/07/29 09:03:35;;;;;;;4.43;1.50;;;21.30;60.40;;;;;;6218764;23;20020;-75
2021/07/29 09:06:08;;;;;;;4.72;1.60;;;21.60;60.50;;;;;;6222509;23;20020;-78
2021/07/29 09:08:49;;;;;;;4.18;1.80;;;21.90;58.40;;;;;;6221193;23;20029;-79
2021/07/29 09:11:32;;;;;;;2.65;1.52;;;22.10;58.60;;;;;;6222027;23;20021;-79
2021/07/29 09:14:13;;;;;;;5.70;1.50;;;22.10;57.80;;;;;;6222103;23;20028;-78
2021/07/29 09:16:55;;;;;;;9.65;2.10;;;21.80;57.80;;;;;;6224958;23;20071;-78
2021/07/29 09:19:34;;;;;;;4.88;1.80;;;22.00;57.70;;;;;;6225452;23;20043;-78
2021/07/29 09:22:14;;;;;;;5.47;2.00;;;22.00;58.10;;;;;;6223080;23;20024;-77
2021/07/29 09:24:55;;;;;;;;;;;21.70;57.30;;;;;;6225343;23;20025;-78
2021/07/29 09:27:22;;;;;;;5.72;1.80;;;21.50;57.80;;;;;;6223071;23;19912;-77
2021/07/29 09:29:50;;;;;;;6.80;1.70;;;21.40;57.70;;;;;;6221050;23;20012;-77
2021/07/29 09:32:18;;;;;;;5.55;1.30;;;21.50;56.20;;;;;;6219984;23;20216;-78
2021/07/29 09:34:48;;;;;;;5.10;1.73;;;21.60;56.90;;;;;;6223336;23;20023;-79
2021/07/29 09:37:19;;;;;;;3.45;1.42;;;22.00;56.50;;;;;;6223388;23;20024;-79
2021/07/29 09:39:58;;;;;;;4.22;1.58;;;21.90;56.30;;;;;;6224551;23;20333;-80
2021/07/29 09:42:25;;;;;;;5.07;1.60;;;22.00;56.00;;;;;;6220574;23;20027;-79
2021/07/29 09:44:53;;;;;;;6.28;1.67;;;21.70;56.20;;;;;;6220349;23;20094;-80
2021/07/29 09:47:22;;;;;;;3.08;1.23;;;21.80;57.00;;;;;;6224572;23;20063;-80
2021/07/29 09:49:50;;;;;;;3.60;1.50;;;21.80;55.80;;;;;;6220846;23;20028;-79
2021/07/29 09:52:20;;;;;;;4.60;1.40;;;22.20;53.30;;;;;;6218178;23;20025;-76
2021/07/29 09:54:48;;;;;;;3.00;1.33;;;22.40;53.20;;;;;;6223746;23;20047;-77
2021/07/29 09:57:17;;;;;;;3.75;1.50;;;22.40;51.70;;;;;;6222472;23;20032;-77
2021/07/29 09:59:44;;;;;;;4.30;1.25;;;22.40;51.90;;;;;;6220519;23;20044;-79
2021/07/29 10:02:12;;;;;;;3.60;1.40;;;22.60;51.90;;;;;;6219722;23;20205;-77
2021/07/29 10:04:45;;;;;;;5.32;1.40;;;22.70;50.40;;;;;;6219427;23;20023;-78
2021/07/29 10:07:25;;;;;;;3.88;1.55;;;22.60;51.90;;;;;;6220753;23;20032;-79
2021/07/29 10:09:53;;;;;;;5.05;1.17;;;22.50;52.00;;;;;;6222648;23;20021;-79
2021/07/29 10:12:27;;;;;;;11.15;1.60;;;22.60;51.70;;;;;;6223118;23;20079;-79
2021/07/29 10:14:55;;;;;;;4.15;1.30;;;23.30;51.40;;;;;;6224298;23;20247;-79
2021/07/29 10:18:10;;;;;;;4.35;2.42;;;23.70;50.70;;;;;;6223061;23;20028;-79
2021/07/29 10:20:38;;;;;;;3.03;1.20;;;22.80;50.80;;;;;;6222710;23;20032;-78
2021/07/29 10:23:30;;;;;;;3.78;1.10;;;22.80;51.80;;;;;;6223589;23;20023;-79
2021/07/29 10:26:08;;;;;;;4.80;1.27;;;23.40;50.20;;;;;;6221410;23;20082;-78
2021/07/29 10:28:42;;;;;;;4.67;1.30;;;24.20;47.80;;;;;;6218840;23;20051;-79
2021/07/29 10:31:15;;;;;;;3.45;1.40;;;25.10;47.30;;;;;;6222565;23;20220;-78
2021/07/29 10:33:44;;;;;;;3.22;1.23;;;25.50;45.00;;;;;;6221962;23;20028;-78
2021/07/29 10:36:48;;;;;;;2.40;0.90;;;26.10;43.50;;;;;;6244441;23;20035;-79
2021/07/29 10:39:17;;;;;;;5.93;1.00;;;25.10;44.50;;;;;;6223771;23;20083;-77
2021/07/29 10:41:47;;;;;;;4.10;1.42;;;25.30;43.80;;;;;;6222155;23;20386;-78
2021/07/29 10:44:57;;;;;;;3.08;1.27;;;26.50;42.70;;;;;;6221559;23;20259;-78
2021/07/29 10:47:43;;;;;;;3.33;1.17;;;27.30;41.40;;;;;;6218727;23;20044;-78
2021/07/29 10:50:19;;;;;;;3.40;1.20;;;27.80;38.20;;;;;;6222697;23;20016;-79
2021/07/29 10:52:49;;;;;;;3.13;1.30;;;27.90;38.00;;;;;;6219056;23;20043;-78
2021/07/29 10:55:18;;;;;;;;;;;27.90;38.60;;;;;;6223422;23;20024;-80
2021/07/29 10:58:02;;;;;;;4.20;1.45;;;26.70;40.30;;;;;;6247185;23;19912;-78
2021/07/29 11:00:31;;;;;;;3.85;1.10;;;27.30;39.60;;;;;;6212642;23;20336;-81
2021/07/29 11:03:07;;;;;;;5.50;1.38;;;28.20;39.30;;;;;;6219704;23;20075;-80
2021/07/29 11:05:43;;;;;;;3.30;1.23;;;27.20;39.20;;;;;;6220807;23;20044;-80
2021/07/29 11:08:12;;;;;;;4.82;1.15;;;26.50;40.60;;;;;;6217065;23;20080;-80
2021/07/29 11:10:41;;;;;;;5.57;1.77;;;25.10;43.00;;;;;;6219731;23;20350;-79
2021/07/29 11:13:13;;;;;;;3.30;1.10;;;24.60;43.60;;;;;;6217761;23;20020;-80
2021/07/29 11:15:42;;;;;;;6.13;1.27;;;24.00;44.10;;;;;;6219387;23;20024;-76
2021/07/29 11:18:13;;;;;;;4.07;1.55;;;23.50;45.00;;;;;;6216816;23;20032;-78
2021/07/29 11:20:40;;;;;;;3.42;1.05;;;23.90;44.70;;;;;;6217414;23;20033;-79
2021/07/29 11:23:09;;;;;;;2.22;0.90;;;24.10;44.20;;;;;;6213423;23;20021;-77
2021/07/29 11:25:36;;;;;;;4.82;1.50;;;23.80;44.20;;;;;;6219159;23;20031;-77
2021/07/29 11:28:15;;;;;;;1.88;1.00;;;24.90;41.80;;;;;;6218618;23;20067;-78
2021/07/29 11:30:43;;;;;;;2.92;1.08;;;26.90;38.70;;;;;;6220284;23;20028;-78
2021/07/29 11:33:21;;;;;;;3.55;1.10;;;29.10;34.30;;;;;;6217091;23;20036;-80
2021/07/29 11:35:49;;;;;;;3.83;1.05;;;29.80;32.70;;;;;;6219480;23;20040;-80
2021/07/29 11:38:18;;;;;;;2.78;1.17;;;29.30;33.00;;;;;;6221505;23;20067;-80
2021/07/29 11:40:46;;;;;;;3.55;1.13;;;29.00;33.70;;;;;;6218974;23;20029;-80
2021/07/29 11:43:24;;;;;;;4.30;0.90;;;27.60;35.60;;;;;;6223147;23;20032;-78
2021/07/29 11:45:52;;;;;;;5.63;1.00;;;27.70;35.90;;;;;;6220184;23;20208;-79
2021/07/29 11:48:21;;;;;;;1.55;0.88;;;26.30;38.60;;;;;;6221113;23;20208;-80
2021/07/29 11:50:49;;;;;;;2.15;0.93;;;25.90;39.50;;;;;;6222087;23;20028;-79
2021/07/29 11:53:17;;;;;;;4.05;1.45;;;26.30;39.80;;;;;;6223716;23;20324;-79
2021/07/29 11:55:54;;;;;;;2.15;1.15;;;25.40;39.90;;;;;;6223401;23;20209;-79
2021/07/29 11:58:25;;;;;;;2.88;1.17;;;24.10;42.70;;;;;;6220476;23;20037;-77
2021/07/29 12:00:54;;;;;;;2.33;1.10;;;23.60;43.90;;;;;;6215654;23;20109;-77
2021/07/29 12:03:28;;;;;;;3.63;1.13;;;23.20;45.00;;;;;;6219465;23;20323;-78
2021/07/29 12:05:57;;;;;;;4.50;1.65;;;23.00;45.70;;;;;;6218560;23;20204;-78
2021/07/29 12:08:25;;;;;;;2.40;1.13;;;23.10;45.30;;;;;;6221258;23;20076;-78
2021/07/29 12:10:54;;;;;;;4.47;1.20;;;23.30;45.20;;;;;;6220184;23;20256;-77
2021/07/29 12:13:23;;;;;;;3.03;1.13;;;25.50;40.80;;;;;;6220807;23;20091;-78
2021/07/29 12:15:51;;;;;;;3.15;0.80;;;24.30;42.40;;;;;;6218564;23;20205;-78
2021/07/29 12:18:20;;;;;;;1.67;1.00;;;25.50;41.80;;;;;;6218876;23;20189;-77
2021/07/29 12:20:48;;;;;;;3.58;1.20;;;24.60;42.50;;;;;;6219272;23;20241;-77
2021/07/29 12:23:17;;;;;;;6.07;1.73;;;23.70;44.30;;;;;;6222641;23;20020;-78
2021/07/29 12:25:46;;;;;;;2.97;1.38;;;23.20;46.60;;;;;;6221303;23;20087;-77
2021/07/29 12:28:16;;;;;;;2.97;1.02;;;23.00;46.80;;;;;;6220214;23;20417;-78
2021/07/29 12:30:48;;;;;;;3.63;1.42;;;24.50;42.80;;;;;;6224291;23;20076;-78
2021/07/29 12:33:17;;;;;;;2.90;1.08;;;24.60;42.20;;;;;;6219950;23;20269;-78
2021/07/29 12:35:57;;;;;;;2.50;1.13;;;24.00;43.80;;;;;;6220000;23;20028;-78
2021/07/29 12:38:30;;;;;;;4.03;1.92;;;23.70;44.50;;;;;;6219253;23;20040;-78
2021/07/29 12:40:58;;;;;;;4.43;1.23;;;23.60;45.80;;;;;;6217813;23;20058;-77
2021/07/29 12:43:28;;;;;;;2.90;1.40;;;23.50;43.90;;;;;;6219727;23;20315;-77
2021/07/29 12:45:58;;;;;;;3.20;1.33;;;24.00;44.20;;;;;;6219300;23;20017;-77
2021/07/29 12:48:27;;;;;;;4.97;1.15;;;24.10;43.60;;;;;;6215850;23;20368;-78
2021/07/29 12:50:55;;;;;;;1.88;0.93;;;25.30;42.10;;;;;;6216113;23;20075;-78
2021/07/29 12:53:24;;;;;;;2.78;1.40;;;28.00;35.70;;;;;;6217536;23;20019;-77
2021/07/29 12:55:52;;;;;;;5.60;1.67;;;27.80;33.60;;;;;;6215770;23;20029;-78
2021/07/29 12:58:21;;;;;;;3.88;1.20;;;29.40;32.00;;;;;;6218225;23;20047;-78
2021/07/29 13:00:49;;;;;;;2.80;1.27;;;28.70;32.30;;;;;;6210050;23;20117;-77